Time;durP1;ratioP1;P1;durP2;ratioP2;P2;SDS_P1;SDS_P2;PMS_P1;PMS_P2;Temp;Humidity;BMP_temperature;BMP_pressure;BME280_temperature;BME280_humidity;BME280_pressure;Samples;Min_cycle;Max_cycle;Signal;HPM_P1;HPM_P2
2024/01/18 00:03:11;;;;;;;9.68;3.95;;;12.30;99.90;;;;;;10562753;27;20418;-63
2024/01/18 00:08:12;;;;;;;7.27;3.17;;;12.20;99.90;;;;;;10565927;27;20051;-62
2024/01/18 00:13:16;;;;;;;7.00;2.83;;;12.20;99.90;;;;;;10563310;27;20056;-65
2024/01/18 00:18:18;;;;;;;10.70;3.05;;;12.20;99.90;;;;;;10559647;27;20043;-63
2024/01/18 00:23:20;;;;;;;8.47;2.97;;;12.20;99.90;;;;;;10565787;28;20039;-62
2024/01/18 00:28:23;;;;;;;7.43;3.10;;;12.10;99.90;;;;;;10563586;27;20423;-62
2024/01/18 00:33:25;;;;;;;6.53;2.53;;;12.20;99.90;;;;;;10579126;27;20047;-64
2024/01/18 00:38:27;;;;;;;4.90;2.20;;;12.10;99.90;;;;;;10567500;27;20139;-63
2024/01/18 00:43:31;;;;;;;7.57;2.60;;;12.10;99.90;;;;;;10571321;27;20051;-62
2024/01/18 00:48:33;;;;;;;10.20;2.30;;;12.10;99.90;;;;;;10568304;27;20047;-62
2024/01/18 00:53:35;;;;;;;7.87;2.50;;;12.10;99.90;;;;;;10578393;27;20406;-61
2024/01/18 00:58:39;;;;;;;6.60;2.58;;;12.10;99.90;;;;;;10578555;27;20070;-62
2024/01/18 01:03:41;;;;;;;4.13;2.53;;;12.10;99.90;;;;;;10569233;27;20498;-63
2024/01/18 01:08:43;;;;;;;11.73;2.70;;;12.10;99.90;;;;;;10567584;27;20689;-62
2024/01/18 01:13:47;;;;;;;5.25;2.60;;;12.10;99.90;;;;;;10565992;27;20109;-63
2024/01/18 01:18:48;;;;;;;6.57;1.95;;;12.10;99.90;;;;;;10569358;27;20051;-63
2024/01/18 01:23:51;;;;;;;6.47;2.50;;;12.10;99.90;;;;;;10561654;27;20106;-63
2024/01/18 01:28:55;;;;;;;6.47;1.58;;;12.20;99.90;;;;;;10560319;27;20044;-63
2024/01/18 01:33:56;;;;;;;5.65;1.95;;;12.20;99.90;;;;;;10569566;27;20055;-63
2024/01/18 01:38:58;;;;;;;5.78;2.08;;;12.20;99.90;;;;;;10566899;27;20047;-63
2024/01/18 01:44:02;;;;;;;9.45;2.35;;;12.20;99.90;;;;;;10560302;27;20055;-63
2024/01/18 01:49:06;;;;;;;5.72;2.28;;;12.20;99.90;;;;;;10570541;27;20410;-63
2024/01/18 01:54:09;;;;;;;4.13;1.98;;;12.20;99.90;;;;;;10564190;27;20729;-63
2024/01/18 01:59:12;;;;;;;5.40;1.95;;;12.30;99.90;;;;;;10569634;27;20051;-63
2024/01/18 02:04:15;;;;;;;6.65;1.55;;;12.20;99.90;;;;;;10556491;27;20055;-62
2024/01/18 02:09:17;;;;;;;6.90;0.97;;;12.20;99.90;;;;;;10561892;27;20054;-63
2024/01/18 02:14:21;;;;;;;3.78;0.65;;;12.20;99.90;;;;;;10556392;27;20504;-63
2024/01/18 02:19:23;;;;;;;2.63;0.82;;;12.20;99.90;;;;;;10567999;27;20081;-63
2024/01/18 02:24:32;;;;;;;2.38;0.77;;;12.20;99.90;;;;;;10561835;27;20495;-63
2024/01/18 02:29:36;;;;;;;0.98;0.50;;;12.10;99.90;;;;;;10569440;27;20166;-62
2024/01/18 02:34:39;;;;;;;3.78;0.50;;;12.10;99.90;;;;;;10565381;27;20047;-63
2024/01/18 02:39:42;;;;;;;3.20;1.02;;;12.00;99.90;;;;;;10562964;27;20600;-64
2024/01/18 02:44:46;;;;;;;3.83;1.20;;;12.00;99.90;;;;;;10567866;27;20055;-62
2024/01/18 02:49:48;;;;;;;4.43;1.67;;;12.00;99.90;;;;;;10569601;27;20058;-62
2024/01/18 02:54:50;;;;;;;3.03;1.33;;;12.00;99.90;;;;;;10569242;27;20661;-62
2024/01/18 02:59:54;;;;;;;2.10;0.87;;;11.90;99.90;;;;;;10568506;27;20058;-62
2024/01/18 03:04:56;;;;;;;2.30;1.55;;;11.90;99.90;;;;;;10565562;27;20058;-62
2024/01/18 03:09:58;;;;;;;2.43;1.27;;;11.80;99.90;;;;;;10558459;27;20375;-62
2024/01/18 03:15:01;;;;;;;3.93;1.90;;;11.80;99.90;;;;;;10559062;27;20047;-62
2024/01/18 03:20:07;;;;;;;2.97;0.93;;;11.80;99.90;;;;;;10560773;27;20056;-63
2024/01/18 03:25:12;;;;;;;2.05;1.23;;;11.80;99.90;;;;;;10566461;27;20173;-62
2024/01/18 03:30:16;;;;;;;3.83;1.10;;;11.80;99.90;;;;;;10558309;27;20039;-62
2024/01/18 03:35:18;;;;;;;2.95;0.68;;;11.80;99.90;;;;;;10572643;27;20055;-62
2024/01/18 03:40:20;;;;;;;2.00;1.00;;;11.80;99.90;;;;;;10568236;27;20039;-62
2024/01/18 03:45:23;;;;;;;3.65;1.08;;;11.80;99.90;;;;;;10568740;27;20058;-62
2024/01/18 03:50:25;;;;;;;2.63;1.05;;;11.70;99.90;;;;;;10572818;27;20054;-62
2024/01/18 03:55:27;;;;;;;3.67;1.33;;;11.70;99.90;;;;;;10572104;27;20055;-62
2024/01/18 04:15:32;;;;;;;2.80;1.42;;;11.50;99.90;;;;;;10488164;28;21240;-62
2024/01/18 04:20:34;;;;;;;3.90;1.10;;;11.60;99.90;;;;;;10497081;28;20044;-62
2024/01/18 04:25:36;;;;;;;4.00;1.40;;;11.50;99.90;;;;;;10501694;28;20059;-61
2024/01/18 04:30:40;;;;;;;5.37;2.03;;;11.50;99.90;;;;;;10503239;28;20059;-62
2024/01/18 04:35:42;;;;;;;24.38;8.77;;;11.50;99.90;;;;;;10500910;28;21234;-62
2024/01/18 04:40:44;;;;;;;1.27;0.70;;;11.50;99.90;;;;;;10499813;28;20052;-62
2024/01/18 04:45:48;;;;;;;19.98;7.20;;;11.50;99.90;;;;;;10496746;28;20090;-61
2024/01/18 04:50:50;;;;;;;10.18;2.60;;;11.50;99.90;;;;;;10496085;28;20067;-62
2024/01/18 04:55:53;;;;;;;7.10;3.20;;;11.50;99.90;;;;;;10495263;28;20118;-62
2024/01/18 05:00:56;;;;;;;2.83;1.13;;;11.60;99.90;;;;;;10492147;28;20052;-60
2024/01/18 05:05:58;;;;;;;2.38;0.80;;;11.60;99.90;;;;;;10495882;28;20056;-62
2024/01/18 05:11:00;;;;;;;1.67;0.70;;;11.50;99.90;;;;;;10496495;28;20052;-62
2024/01/18 05:16:06;;;;;;;1.97;0.80;;;11.50;99.90;;;;;;10492857;28;20055;-61
2024/01/18 05:21:07;;;;;;;3.60;1.00;;;11.50;99.90;;;;;;10493613;28;20041;-63
2024/01/18 05:26:09;;;;;;;7.05;0.80;;;11.50;99.90;;;;;;10469688;28;20072;-62
2024/01/18 05:31:13;;;;;;;3.83;1.10;;;11.60;99.90;;;;;;10465665;28;20846;-63
2024/01/18 05:36:15;;;;;;;2.20;0.50;;;11.60;99.90;;;;;;10465920;28;20510;-62
2024/01/18 05:41:17;;;;;;;1.27;0.35;;;11.60;99.90;;;;;;10465903;28;20052;-63
2024/01/18 05:46:20;;;;;;;3.50;0.50;;;11.30;99.90;;;;;;10464078;28;20047;-63
2024/01/18 05:51:24;;;;;;;6.10;0.57;;;11.40;99.90;;;;;;10463040;28;20106;-62
2024/01/18 05:56:26;;;;;;;5.82;0.88;;;11.40;99.90;;;;;;10465417;28;20068;-62
2024/01/18 06:01:29;;;;;;;8.98;1.90;;;11.40;99.90;;;;;;10457750;28;20317;-63
2024/01/18 06:06:32;;;;;;;1.58;0.63;;;11.60;99.90;;;;;;10463490;28;20193;-62
2024/01/18 06:11:34;;;;;;;3.55;0.80;;;11.70;99.90;;;;;;10459939;28;20107;-62
2024/01/18 06:16:38;;;;;;;5.57;0.70;;;11.90;99.90;;;;;;10454239;28;20123;-62
2024/01/18 06:21:41;;;;;;;2.03;0.63;;;12.10;99.90;;;;;;10454703;28;20388;-62
2024/01/18 06:26:43;;;;;;;6.60;0.82;;;11.90;99.90;;;;;;10459854;28;20041;-63
2024/01/18 06:31:46;;;;;;;2.63;0.90;;;12.10;99.90;;;;;;10457819;28;20055;-62
2024/01/18 06:36:48;;;;;;;4.95;0.70;;;12.20;99.90;;;;;;10453728;28;20143;-62
2024/01/18 06:41:50;;;;;;;3.07;0.80;;;12.10;99.90;;;;;;10458662;28;20072;-63
2024/01/18 06:46:53;;;;;;;4.05;0.70;;;12.20;99.90;;;;;;10454037;28;20091;-62
2024/01/18 06:51:55;;;;;;;1.10;0.63;;;12.30;99.90;;;;;;10453874;28;20044;-63
2024/01/18 06:56:57;;;;;;;0.77;0.50;;;11.90;99.90;;;;;;10456215;28;20865;-62
2024/01/18 07:02:01;;;;;;;4.25;1.08;;;11.90;99.90;;;;;;10455985;28;20072;-61
2024/01/18 07:07:03;;;;;;;3.38;1.05;;;11.90;99.90;;;;;;10453518;28;20048;-62
2024/01/18 07:12:06;;;;;;;3.60;1.10;;;11.80;99.90;;;;;;10457897;28;20139;-61
2024/01/18 07:17:10;;;;;;;3.53;1.23;;;11.80;99.90;;;;;;10454976;28;20044;-62
2024/01/18 07:22:12;;;;;;;3.70;1.60;;;11.70;99.90;;;;;;10457253;28;20048;-62
2024/01/18 07:27:14;;;;;;;1.60;1.17;;;11.70;99.90;;;;;;10453928;28;20060;-61
2024/01/18 07:32:18;;;;;;;5.30;1.40;;;11.60;99.90;;;;;;10456396;28;20428;-62
2024/01/18 07:37:20;;;;;;;3.63;1.60;;;11.70;99.90;;;;;;10455686;28;20059;-62
2024/01/18 07:42:22;;;;;;;3.80;1.55;;;11.60;99.90;;;;;;10453632;28;20074;-62
2024/01/18 07:47:26;;;;;;;3.10;1.10;;;11.50;99.90;;;;;;10452535;28;20126;-62
2024/01/18 07:52:28;;;;;;;3.35;1.00;;;11.50;99.90;;;;;;10451501;28;20044;-62
2024/01/18 07:57:30;;;;;;;8.45;1.10;;;10.80;99.90;;;;;;10455480;28;20629;-62
2024/01/18 08:02:33;;;;;;;3.57;1.93;;;10.80;99.90;;;;;;10450947;28;20067;-63
2024/01/18 08:07:35;;;;;;;3.55;1.02;;;11.20;99.90;;;;;;10450542;28;20067;-63
2024/01/18 08:12:37;;;;;;;7.37;1.77;;;11.10;99.90;;;;;;10448858;28;20051;-62
2024/01/18 08:17:41;;;;;;;5.13;1.47;;;11.20;99.90;;;;;;10452148;28;20079;-62
2024/01/18 08:22:44;;;;;;;3.78;1.08;;;11.20;99.90;;;;;;10451500;28;20052;-63
2024/01/18 08:27:46;;;;;;;;;;;11.30;99.90;;;;;;10451900;28;20139;-62
2024/01/18 08:32:49;;;;;;;7.38;2.25;;;11.00;99.90;;;;;;10448253;28;19946;-62
2024/01/18 08:37:52;;;;;;;5.28;2.10;;;11.30;99.90;;;;;;10451053;28;20243;-63
2024/01/18 08:42:54;;;;;;;4.03;1.90;;;11.40;99.90;;;;;;10444400;28;20063;-63
2024/01/18 08:47:58;;;;;;;7.63;1.20;;;11.50;99.90;;;;;;10444725;28;20056;-62
2024/01/18 08:53:00;;;;;;;6.80;1.38;;;11.50;99.90;;;;;;10450256;28;20052;-62
2024/01/18 08:58:02;;;;;;;2.80;1.10;;;11.40;99.90;;;;;;10450197;28;20175;-62
2024/01/18 09:03:06;;;;;;;6.17;0.73;;;11.30;99.90;;;;;;10456436;28;20568;-63
2024/01/18 09:08:09;;;;;;;6.22;0.82;;;10.70;99.90;;;;;;10459454;28;20063;-63
2024/01/18 09:13:13;;;;;;;1.70;0.65;;;9.90;99.90;;;;;;10462658;28;20052;-62
2024/01/18 09:18:19;;;;;;;8.27;1.27;;;8.90;99.90;;;;;;10458478;28;20048;-64
2024/01/18 09:23:21;;;;;;;1.17;0.50;;;9.90;99.90;;;;;;10457504;28;20513;-62
2024/01/18 09:28:23;;;;;;;2.70;0.52;;;10.40;99.90;;;;;;10459997;28;20052;-62
2024/01/18 09:33:26;;;;;;;6.32;1.08;;;9.90;99.90;;;;;;10457379;28;20083;-64
2024/01/18 09:38:29;;;;;;;5.18;1.52;;;9.80;99.90;;;;;;10455625;28;20052;-61
2024/01/18 09:43:35;;;;;;;4.38;0.90;;;9.10;99.90;;;;;;10459791;28;20093;-61
2024/01/18 09:48:40;;;;;;;4.93;0.82;;;8.90;99.90;;;;;;10456275;28;20052;-61
2024/01/18 09:53:48;;;;;;;2.05;0.90;;;9.70;99.90;;;;;;10457652;28;20051;-62
2024/01/18 09:58:50;;;;;;;4.53;1.58;;;9.60;99.90;;;;;;10457692;28;20071;-62
2024/01/18 10:03:54;;;;;;;3.67;0.67;;;8.70;99.90;;;;;;10457503;28;20048;-62
2024/01/18 10:08:59;;;;;;;1.65;0.50;;;10.30;99.90;;;;;;10453616;28;20077;-64
2024/01/18 10:14:02;;;;;;;2.63;0.85;;;9.80;99.90;;;;;;10456795;28;20049;-63
2024/01/18 10:19:06;;;;;;;5.35;1.10;;;10.60;99.90;;;;;;10460232;28;20239;-63
2024/01/18 10:24:15;;;;;;;3.60;1.35;;;10.70;99.90;;;;;;10458788;28;20045;-63
2024/01/18 10:29:19;;;;;;;2.63;0.77;;;10.10;99.90;;;;;;10460036;28;20056;-63
2024/01/18 10:34:23;;;;;;;2.20;0.50;;;10.10;99.90;;;;;;10457988;28;20048;-62
2024/01/18 10:39:26;;;;;;;5.50;0.93;;;8.70;99.90;;;;;;10458457;28;20257;-63
2024/01/18 10:44:28;;;;;;;;;;;10.40;99.90;;;;;;10457553;28;20037;-62
2024/01/18 10:49:33;;;;;;;6.03;0.85;;;9.40;99.90;;;;;;10454647;28;19925;-62
2024/01/18 10:54:36;;;;;;;4.22;0.43;;;9.50;99.90;;;;;;10454736;28;20084;-62
2024/01/18 10:59:39;;;;;;;4.35;0.52;;;9.00;99.90;;;;;;10455179;28;20059;-62
2024/01/18 11:04:43;;;;;;;9.70;1.03;;;9.10;99.90;;;;;;10452797;28;20555;-63
2024/01/18 11:09:46;;;;;;;2.42;0.35;;;8.60;99.90;;;;;;10455100;28;20052;-62
2024/01/18 11:14:49;;;;;;;3.35;0.40;;;8.60;99.90;;;;;;10456367;28;20514;-62
2024/01/18 11:19:55;;;;;;;4.40;1.08;;;8.20;99.90;;;;;;10455212;28;20094;-63
2024/01/18 11:25:04;;;;;;;4.57;0.68;;;8.60;99.90;;;;;;10451135;28;20044;-63
2024/01/18 11:30:11;;;;;;;8.13;0.77;;;8.80;99.90;;;;;;10451154;28;20855;-61
2024/01/18 11:35:17;;;;;;;0.43;0.40;;;8.60;99.90;;;;;;10452773;28;20080;-61
2024/01/18 11:40:19;;;;;;;6.97;0.70;;;9.20;99.90;;;;;;10447383;28;20085;-61
2024/01/18 11:45:22;;;;;;;2.53;0.70;;;9.40;99.90;;;;;;10450274;28;21330;-61
2024/01/18 11:50:26;;;;;;;2.30;0.45;;;10.00;99.90;;;;;;10449018;28;20052;-62
2024/01/18 11:55:31;;;;;;;3.22;0.30;;;9.90;99.90;;;;;;10454533;28;20801;-62
2024/01/18 12:00:33;;;;;;;0.57;0.50;;;10.20;99.90;;;;;;10453230;28;20593;-63
2024/01/18 12:05:37;;;;;;;4.67;0.77;;;10.40;99.90;;;;;;10455370;28;20842;-63
2024/01/18 12:10:41;;;;;;;1.83;1.15;;;10.40;99.90;;;;;;10456090;28;20060;-62
2024/01/18 12:15:44;;;;;;;1.33;0.60;;;9.70;99.90;;;;;;10453834;28;20053;-62
2024/01/18 12:20:49;;;;;;;1.80;0.60;;;10.70;99.90;;;;;;10455245;28;20063;-63
2024/01/18 12:25:51;;;;;;;3.10;0.60;;;11.00;99.90;;;;;;10454029;28;20055;-61
2024/01/18 12:31:00;;;;;;;2.20;0.70;;;9.00;99.90;;;;;;10453245;28;20057;-63
2024/01/18 12:36:04;;;;;;;2.25;0.82;;;9.40;99.90;;;;;;10460985;28;20513;-65
2024/01/18 12:41:06;;;;;;;2.47;1.00;;;10.00;99.90;;;;;;10462796;28;20079;-62
2024/01/18 12:46:08;;;;;;;4.10;0.60;;;10.00;99.90;;;;;;10462309;28;20064;-63
2024/01/18 12:51:14;;;;;;;2.90;0.77;;;10.10;99.90;;;;;;10460767;28;20052;-62
2024/01/18 12:56:17;;;;;;;4.43;0.60;;;10.50;99.90;;;;;;10461163;28;20413;-62
2024/01/18 13:01:28;;;;;;;2.17;0.40;;;9.60;99.90;;;;;;10457394;28;20056;-62
2024/01/18 13:06:33;;;;;;;1.52;0.50;;;9.90;99.90;;;;;;10457357;28;20057;-62
2024/01/18 13:11:36;;;;;;;4.55;0.73;;;11.40;99.90;;;;;;10458692;28;20530;-62
2024/01/18 13:16:47;;;;;;;3.70;0.70;;;11.90;99.90;;;;;;10458139;28;20872;-62
2024/01/18 13:21:52;;;;;;;1.60;0.45;;;12.10;99.90;;;;;;10458520;28;20853;-63
2024/01/18 13:26:54;;;;;;;1.02;0.77;;;12.20;99.90;;;;;;10457158;28;20060;-63
2024/01/18 13:31:56;;;;;;;1.97;0.67;;;12.60;99.90;;;;;;10461562;28;20062;-63
2024/01/18 13:37:00;;;;;;;1.55;0.73;;;12.70;99.90;;;;;;10457385;28;20079;-63
2024/01/18 13:42:02;;;;;;;1.30;0.63;;;13.00;99.90;;;;;;10459910;28;20048;-63
2024/01/18 13:47:05;;;;;;;1.57;0.80;;;13.00;99.90;;;;;;10457499;28;20044;-63
2024/01/18 13:52:09;;;;;;;3.88;1.38;;;13.30;99.90;;;;;;10456074;28;20512;-63
2024/01/18 13:57:11;;;;;;;3.72;0.47;;;13.30;99.90;;;;;;10458292;28;20132;-63
2024/01/18 14:02:13;;;;;;;1.10;0.60;;;13.60;99.90;;;;;;10456080;28;20041;-63
2024/01/18 14:07:17;;;;;;;3.33;0.57;;;13.80;99.90;;;;;;10455349;28;20407;-64
2024/01/18 14:12:19;;;;;;;1.30;0.52;;;12.40;99.90;;;;;;10455353;28;20191;-63
2024/01/18 14:17:21;;;;;;;2.53;0.60;;;13.20;99.90;;;;;;10451567;28;20041;-64
2024/01/18 14:22:24;;;;;;;3.03;0.75;;;12.40;99.90;;;;;;10455256;28;20059;-64
2024/01/18 14:27:28;;;;;;;4.18;0.45;;;13.50;99.90;;;;;;10454332;28;20044;-64
2024/01/18 14:32:31;;;;;;;1.38;0.50;;;13.70;99.90;;;;;;10454373;28;20488;-63
2024/01/18 14:37:35;;;;;;;2.50;0.75;;;13.60;99.90;;;;;;10455138;28;20055;-63
2024/01/18 14:42:37;;;;;;;2.70;0.80;;;13.80;99.90;;;;;;10457721;28;20068;-63
2024/01/18 14:47:39;;;;;;;5.90;0.70;;;14.00;99.90;;;;;;10456475;28;20087;-63
2024/01/18 14:52:43;;;;;;;3.57;0.30;;;13.80;99.90;;;;;;10453241;28;20223;-62
2024/01/18 14:57:45;;;;;;;3.50;1.08;;;14.10;99.90;;;;;;10454432;28;20762;-63
2024/01/18 15:02:47;;;;;;;2.72;0.90;;;14.40;99.90;;;;;;10454489;28;20056;-62
2024/01/18 15:07:50;;;;;;;3.47;0.90;;;14.50;99.90;;;;;;10454424;28;20555;-64
2024/01/18 15:12:52;;;;;;;4.10;0.55;;;14.70;99.90;;;;;;10453374;28;20063;-63
2024/01/18 15:17:55;;;;;;;4.03;0.70;;;14.80;99.90;;;;;;10453608;28;20060;-62
2024/01/18 15:22:59;;;;;;;8.88;0.80;;;15.00;99.90;;;;;;10449557;28;20858;-62
2024/01/18 15:28:01;;;;;;;7.40;0.60;;;15.00;99.90;;;;;;10457200;28;20392;-63
2024/01/18 15:33:04;;;;;;;3.67;0.75;;;15.10;99.90;;;;;;10453708;28;20258;-63
2024/01/18 15:38:08;;;;;;;9.85;0.88;;;15.10;99.90;;;;;;10456319;28;20056;-63
2024/01/18 15:43:11;;;;;;;11.45;1.35;;;15.10;99.90;;;;;;10448794;28;20052;-64
2024/01/18 15:48:18;;;;;;;5.95;1.55;;;15.00;99.90;;;;;;10446539;28;20052;-65
2024/01/18 15:53:25;;;;;;;6.10;1.00;;;15.10;99.90;;;;;;10441435;28;20209;-65
2024/01/18 15:58:27;;;;;;;4.13;1.83;;;14.90;99.90;;;;;;10446399;28;20060;-64
2024/01/18 16:03:31;;;;;;;24.73;9.70;;;14.90;99.90;;;;;;10444740;28;20135;-64
2024/01/18 16:08:35;;;;;;;5.95;2.13;;;14.80;99.90;;;;;;10446894;28;20045;-64
2024/01/18 16:13:37;;;;;;;5.18;1.17;;;14.80;99.90;;;;;;10452244;28;20052;-63
2024/01/18 16:18:39;;;;;;;7.07;1.00;;;14.70;99.90;;;;;;10460158;28;20048;-66
2024/01/18 16:23:42;;;;;;;6.00;1.67;;;14.50;99.90;;;;;;10454341;28;20217;-64
2024/01/18 16:28:44;;;;;;;7.25;1.42;;;14.60;99.90;;;;;;10454337;28;20752;-63
2024/01/18 16:33:47;;;;;;;5.77;1.40;;;14.50;99.90;;;;;;10447599;28;20110;-63
2024/01/18 16:38:51;;;;;;;5.45;1.20;;;14.40;99.90;;;;;;10446309;28;20048;-64
2024/01/18 16:43:54;;;;;;;10.48;1.25;;;14.40;99.90;;;;;;10442344;28;20048;-64
2024/01/18 16:48:57;;;;;;;;;;;14.30;99.90;;;;;;10446810;28;20105;-64
2024/01/18 16:54:00;;;;;;;13.90;1.30;;;14.20;99.90;;;;;;10442316;28;19941;-64
2024/01/18 16:59:02;;;;;;;6.50;1.10;;;14.20;99.90;;;;;;10443502;28;20772;-64
2024/01/18 17:04:06;;;;;;;15.60;2.40;;;13.60;99.90;;;;;;10446701;28;20879;-64
2024/01/18 17:09:10;;;;;;;10.40;1.83;;;13.30;99.90;;;;;;10447414;28;20421;-64
2024/01/18 17:14:12;;;;;;;8.70;2.78;;;13.40;99.90;;;;;;10440860;28;20057;-64
2024/01/18 17:19:14;;;;;;;7.60;3.20;;;13.30;99.90;;;;;;10445953;28;20055;-63
2024/01/18 17:24:20;;;;;;;9.60;2.43;;;13.20;99.90;;;;;;10453818;28;21107;-64
2024/01/18 17:29:22;;;;;;;10.50;2.78;;;13.10;99.90;;;;;;10451338;28;20494;-63
2024/01/18 17:34:24;;;;;;;14.33;2.23;;;12.80;99.90;;;;;;10453390;28;20692;-62
2024/01/18 17:39:28;;;;;;;10.50;3.90;;;12.80;99.90;;;;;;10452722;28;20059;-63
2024/01/18 17:44:30;;;;;;;14.95;4.60;;;12.80;99.90;;;;;;10451703;28;20072;-63
2024/01/18 17:49:32;;;;;;;19.42;4.85;;;12.50;99.90;;;;;;10452632;28;20060;-63
2024/01/18 17:54:37;;;;;;;9.07;2.50;;;12.40;99.90;;;;;;10447639;28;20822;-64
2024/01/18 17:59:39;;;;;;;7.68;2.47;;;11.90;99.90;;;;;;10451234;28;20954;-64
2024/01/18 18:04:41;;;;;;;15.73;2.60;;;12.00;99.90;;;;;;10446815;28;20055;-63
2024/01/18 18:09:45;;;;;;;6.50;1.97;;;12.00;99.90;;;;;;10450016;28;20057;-65
2024/01/18 18:14:47;;;;;;;7.25;3.28;;;12.00;99.90;;;;;;10448786;28;20110;-65
2024/01/18 18:19:49;;;;;;;11.23;4.47;;;11.90;99.90;;;;;;10447965;28;20076;-63
2024/01/18 18:24:52;;;;;;;5.38;1.42;;;11.80;99.90;;;;;;10449634;28;20215;-62
2024/01/18 18:29:54;;;;;;;4.38;1.95;;;11.90;99.90;;;;;;10449419;28;20056;-64
2024/01/18 18:34:56;;;;;;;5.30;2.30;;;11.80;99.90;;;;;;10451737;28;20163;-65
2024/01/18 18:40:01;;;;;;;4.77;2.27;;;11.90;99.90;;;;;;10449706;28;20168;-64
2024/01/18 18:45:03;;;;;;;6.90;2.83;;;11.90;99.90;;;;;;10446776;28;20583;-63
2024/01/18 18:50:07;;;;;;;10.97;6.47;;;12.00;99.90;;;;;;10449436;28;20534;-64
2024/01/18 18:55:14;;;;;;;10.68;5.07;;;12.00;99.90;;;;;;10449782;28;20044;-59
2024/01/18 19:00:16;;;;;;;7.80;3.67;;;12.00;99.90;;;;;;10449088;28;20052;-63
2024/01/18 19:05:19;;;;;;;10.90;3.55;;;12.00;99.90;;;;;;10449800;28;20060;-63
2024/01/18 19:10:22;;;;;;;12.73;4.35;;;11.90;99.90;;;;;;10448354;28;20066;-63
2024/01/18 19:15:30;;;;;;;16.98;6.45;;;11.90;99.90;;;;;;10448149;28;20143;-63
2024/01/18 19:20:32;;;;;;;9.75;4.07;;;11.90;99.90;;;;;;10451584;28;20088;-62
2024/01/18 19:25:35;;;;;;;14.17;5.53;;;11.80;99.90;;;;;;10447129;28;20071;-61
2024/01/18 19:30:37;;;;;;;21.08;9.82;;;11.70;99.90;;;;;;10448631;28;20045;-62
2024/01/18 19:35:42;;;;;;;39.30;21.13;;;11.70;99.90;;;;;;10451173;28;20099;-62
2024/01/18 19:40:45;;;;;;;27.70;13.18;;;11.60;99.90;;;;;;10444089;28;20119;-61
2024/01/18 19:45:47;;;;;;;12.40;5.22;;;11.90;99.90;;;;;;10445589;28;20045;-62
2024/01/18 19:50:49;;;;;;;7.07;3.67;;;12.20;99.90;;;;;;10446918;28;20068;-63
2024/01/18 19:55:53;;;;;;;14.45;4.90;;;12.30;99.90;;;;;;10446366;28;20052;-62
2024/01/18 20:00:57;;;;;;;15.43;6.65;;;12.40;99.90;;;;;;10444667;28;20060;-63
2024/01/18 20:05:59;;;;;;;7.25;3.60;;;12.40;99.90;;;;;;10447914;28;20048;-63
2024/01/18 20:11:06;;;;;;;18.95;3.67;;;12.40;99.90;;;;;;10447090;28;20984;-61
2024/01/18 20:16:08;;;;;;;9.80;3.38;;;12.40;99.90;;;;;;10446873;28;23145;-64
2024/01/18 20:21:10;;;;;;;12.43;2.70;;;12.40;99.90;;;;;;10448821;28;20079;-63
2024/01/18 20:26:13;;;;;;;11.15;3.30;;;12.30;99.90;;;;;;10444823;28;20052;-63
2024/01/18 20:31:16;;;;;;;15.57;4.95;;;12.40;99.90;;;;;;10448581;28;20069;-63
2024/01/18 20:36:18;;;;;;;12.13;5.20;;;12.40;99.90;;;;;;10447208;28;20079;-64
2024/01/18 20:41:21;;;;;;;13.70;4.27;;;12.50;99.90;;;;;;10441456;28;20044;-65
2024/01/18 20:46:23;;;;;;;11.82;4.15;;;12.40;99.90;;;;;;10446806;28;20045;-63
2024/01/18 20:51:25;;;;;;;10.98;1.95;;;12.30;99.90;;;;;;10444570;28;20504;-63
2024/01/18 20:56:29;;;;;;;4.30;1.30;;;11.50;99.90;;;;;;10446407;28;20528;-63
2024/01/18 21:01:31;;;;;;;8.90;1.98;;;12.00;99.90;;;;;;10451280;28;20076;-62
2024/01/18 21:06:33;;;;;;;12.88;3.30;;;12.30;99.90;;;;;;10450889;28;20706;-62
2024/01/18 21:11:37;;;;;;;6.60;1.50;;;12.30;99.90;;;;;;10455210;28;20113;-63
2024/01/18 21:16:44;;;;;;;8.98;2.90;;;12.30;99.90;;;;;;10452197;28;20076;-63
2024/01/18 21:21:46;;;;;;;9.25;3.05;;;12.20;99.90;;;;;;10455029;28;20176;-62
2024/01/18 21:26:50;;;;;;;6.57;1.80;;;12.30;99.90;;;;;;10455652;28;20044;-63
2024/01/18 21:31:52;;;;;;;9.18;1.25;;;12.20;99.90;;;;;;10452572;28;20068;-63
2024/01/18 21:36:54;;;;;;;8.68;3.00;;;11.30;99.90;;;;;;10447559;28;20049;-63
2024/01/18 21:41:58;;;;;;;4.97;1.43;;;11.50;99.90;;;;;;10447008;28;20072;-65
2024/01/18 21:47:01;;;;;;;8.93;1.70;;;11.20;99.90;;;;;;10451892;28;20103;-63
2024/01/18 21:52:04;;;;;;;3.90;0.75;;;11.60;99.90;;;;;;10450324;28;20103;-63
2024/01/18 21:57:07;;;;;;;3.38;1.50;;;11.10;99.90;;;;;;10449435;28;20053;-62
2024/01/18 22:02:11;;;;;;;5.55;2.33;;;11.10;99.90;;;;;;10452931;28;20087;-63
2024/01/18 22:07:14;;;;;;;7.28;1.52;;;6.70;99.90;;;;;;10451874;28;20056;-64
2024/01/18 22:12:17;;;;;;;4.10;1.80;;;5.90;99.90;;;;;;10451151;28;20938;-63
2024/01/18 22:17:19;;;;;;;2.63;1.35;;;7.10;99.90;;;;;;10449521;28;20599;-64
2024/01/18 22:22:22;;;;;;;6.67;1.20;;;7.80;99.90;;;;;;10451889;28;20055;-63
2024/01/18 22:27:26;;;;;;;3.57;1.17;;;7.20;99.90;;;;;;10450824;28;20613;-63
2024/01/18 22:32:28;;;;;;;2.63;1.20;;;8.70;99.90;;;;;;10457301;28;20048;-63
2024/01/18 22:37:33;;;;;;;6.35;2.00;;;7.00;99.90;;;;;;10453488;28;20527;-63
2024/01/18 22:42:37;;;;;;;1.27;0.90;;;7.20;99.90;;;;;;10447460;28;20056;-62
2024/01/18 22:47:39;;;;;;;4.78;1.15;;;6.60;99.90;;;;;;10438731;28;21128;-63
2024/01/18 22:52:41;;;;;;;5.30;1.63;;;6.90;99.90;;;;;;10456589;28;20055;-63
2024/01/18 22:57:44;;;;;;;6.22;1.60;;;6.80;99.90;;;;;;10452248;28;20090;-63
2024/01/18 23:02:46;;;;;;;5.93;1.88;;;7.00;99.90;;;;;;10452241;28;20649;-62
2024/01/18 23:07:48;;;;;;;4.95;1.67;;;6.60;99.90;;;;;;10449276;28;20079;-64
2024/01/18 23:12:52;;;;;;;12.10;2.95;;;6.80;99.90;;;;;;10448928;28;20071;-63
2024/01/18 23:17:54;;;;;;;7.30;1.98;;;6.50;99.90;;;;;;10450250;28;20045;-63
2024/01/18 23:22:56;;;;;;;11.88;2.30;;;6.10;99.90;;;;;;10447301;28;20091;-62
2024/01/18 23:27:59;;;;;;;6.85;1.65;;;6.70;99.90;;;;;;10449260;28;20114;-65
2024/01/18 23:33:02;;;;;;;6.25;2.05;;;6.20;99.90;;;;;;10445208;28;20948;-63
2024/01/18 23:38:04;;;;;;;4.70;1.60;;;5.90;99.90;;;;;;10445280;28;20048;-63
2024/01/18 23:43:07;;;;;;;6.32;1.42;;;6.30;99.90;;;;;;10447393;28;20048;-63
2024/01/18 23:48:09;;;;;;;3.95;0.90;;;7.00;99.90;;;;;;10447112;28;22676;-62
2024/01/18 23:53:11;;;;;;;5.32;1.10;;;7.00;99.90;;;;;;10448426;28;20782;-62
2024/01/18 23:58:14;;;;;;;5.40;1.33;;;6.50;99.90;;;;;;10446406;28;20523;-62
